Latest Weather Observations for Lake Grace

IDW60801

Issued at 12:33 pm WST Thursday 24 August 2017 (issued every 30 minutes, with the page automatically refreshed every 10 minutes)

About weather observations | Map of weather stations | Latest weather observations for WA | Other Formats
Station Details ID: 010911 Name: LAKE GRACE Lat: -33.10 Lon: 118.46 Height: 286.0 m
Data from the previous 72 hours. | See also: Recent months at Lake Grace
Date/Time
WST
Temp
°C
App
Temp
°C
Dew
Point
°C
Rel
Hum
%
Delta-T
°C
Wind Press
QNH
hPa
Press
MSL
hPa
Rain since
9am
mm
Dir  Spd
km/h
Gust
km/h
Spd
kts
Gust
kts
24/12:30pm 16.0 11.6 6.7 54 4.6 E 19 28 10 15 1027.7 1027.9 0.0
24/12:00pm 15.5 11.4 6.2 54 4.5 ESE 17 28 9 15 1028.5 1028.6 0.0
24/11:30am 15.1 11.0 6.4 56 4.3 E 17 24 9 13 1029.0 1029.2 0.0
24/11:00am 14.7 11.1 6.8 59 3.9 E 15 24 8 13 1029.5 1029.7 0.0
24/10:30am 13.4 8.3 6.0 61 3.6 E 22 35 12 19 1029.7 1029.9 0.0
24/10:00am 13.0 9.0 6.6 65 3.1 ENE 17 24 9 13 1030.0 1030.2 0.0
24/09:30am 12.2 8.6 6.7 69 2.7 ENE 15 24 8 13 1030.1 1030.3 0.0
24/09:00am 10.8 7.0 6.0 72 2.2 ENE 15 24 8 13 1030.1 1030.3 0.0
24/08:30am 9.8 6.5 6.2 78 1.7 ENE 13 22 7 12 1030.3 1030.5 0.0
24/08:00am 8.8 6.2 5.9 82 1.3 SE 9 11 5 6 1030.3 1030.5 0.0
24/07:30am 7.0 4.6 5.2 88 0.8 SE 7 9 4 5 1030.1 1030.3 0.0
24/07:00am 5.4 2.9 3.7 89 0.7 SW 6 9 3 5 1030.1 1030.3 0.0
24/06:30am 5.8 2.7 3.8 87 0.9 SSE 9 13 5 7 1029.6 1029.8 0.0
24/06:00am 6.2 3.6 4.4 88 0.8 ESE 7 11 4 6 1029.4 1029.6 0.0
24/05:30am 6.7 3.8 4.7 87 0.9 ESE 9 13 5 7 1029.4 1029.6 0.0
24/05:00am 6.8 3.9 4.8 87 0.9 E 9 13 5 7 1029.2 1029.4 0.0
24/04:30am 6.9 3.3 5.1 88 0.8 ENE 13 22 7 12 1029.0 1029.2 0.0
24/04:00am 7.0 2.7 5.3 89 0.8 ENE 17 26 9 14 1028.8 1028.9 0.0
24/03:30am 7.1 2.9 5.6 90 0.7 E 17 24 9 13 1028.9 1029.1 0.0
24/03:00am 7.0 4.3 5.6 91 0.6 ESE 9 17 5 9 1028.9 1029.1 0.0
24/02:30am 7.0 4.3 5.8 92 0.5 ESE 9 13 5 7 1029.2 1029.4 0.0
24/02:00am 6.8 3.7 5.6 92 0.5 SE 11 15 6 8 1029.2 1029.4 0.0
24/01:30am 7.3 3.9 5.9 91 0.6 ESE 13 17 7 9 1029.2 1029.4 0.0
24/01:00am 7.4 4.4 6.0 91 0.6 SE 11 15 6 8 1029.5 1029.7 0.0
24/12:30am 7.6 4.3 6.4 92 0.6 SE 13 17 7 9 1029.6 1029.8 0.0
24/12:00am 7.3 4.7 6.2 93 0.5 ESE 9 15 5 8 1029.5 1029.7 0.0
 
Date/Time
WST
Temp
°C
App
Temp
°C
Dew
Point
°C
Rel
Hum
%
Delta-T
°C
Wind Press
QNH
hPa
Press
MSL
hPa
Rain since
9am
mm
Dir  Spd
km/h
Gust
km/h
Spd
kts
Gust
kts
23/11:30pm 7.3 4.3 6.1 92 0.6 SE 11 17 6 9 1029.7 1029.9 0.0
23/11:00pm 8.0 4.7 6.6 91 0.6 ESE 13 19 7 10 1029.9 1030.1 0.0
23/10:30pm 8.4 5.2 6.9 90 0.7 ESE 13 19 7 10 1029.9 1030.1 0.0
23/10:00pm 8.9 5.4 7.0 88 0.9 ESE 15 20 8 11 1029.8 1030.0 0.0
23/09:30pm 9.5 5.3 7.3 86 1.1 ESE 19 28 10 15 1029.9 1030.1 0.0
23/09:00pm 9.9 6.1 7.5 85 1.2 ESE 17 26 9 14 1029.7 1029.9 0.0
23/08:30pm 10.1 7.1 7.5 84 1.3 SE 13 20 7 11 1029.6 1029.8 0.0
23/08:00pm 10.6 7.2 7.8 83 1.4 ESE 15 22 8 12 1029.5 1029.7 0.0
23/07:30pm 10.5 8.1 7.0 79 1.7 SE 9 15 5 8 1029.1 1029.3 0.0
23/07:00pm 11.2 9.1 6.5 73 2.2 ESE 7 9 4 5 1028.7 1028.8 0.0
23/06:30pm 11.6 9.0 6.1 69 2.6 SE 9 11 5 6 1028.3 1028.4 0.0
23/06:00pm 12.9 10.2 5.6 61 3.4 SSE 9 11 5 6 1028.2 1028.3 0.0
23/05:30pm 14.4 11.2 5.0 53 4.5 SSE 11 17 6 9 1028.0 1028.1 0.0
23/05:00pm 14.8 12.3 4.5 50 4.8 S 7 11 4 6 1027.6 1027.8 0.0
23/04:30pm 15.2 11.6 4.9 50 4.9 SSE 13 19 7 10 1027.5 1027.7 0.0
23/04:00pm 15.0 11.1 3.5 46 5.3 SE 13 17 7 9 1027.5 1027.7 0.0
23/03:30pm 15.2 11.6 4.9 50 4.9 SE 13 20 7 11 1027.5 1027.7 0.0
23/03:00pm 14.9 11.4 5.4 53 4.5 SSE 13 20 7 11 1027.5 1027.7 0.0
23/02:30pm 14.8 11.3 3.6 47 5.2 S 11 17 6 9 1027.6 1027.8 0.0
23/02:00pm 15.2 11.9 4.3 48 5.1 SE 11 17 6 9 1027.6 1027.8 0.0
23/01:30pm 15.0 12.2 5.0 51 4.8 SSE 9 19 5 10 1027.6 1027.8 0.0
23/01:00pm 15.0 12.5 4.7 50 4.9 SE 7 15 4 8 1027.7 1027.9 0.0
23/12:30pm 14.5 12.2 5.0 53 4.5 SE 6 13 3 7 1028.2 1028.3 0.0
23/12:00pm 13.9 11.6 5.5 57 4.0 ESE 7 13 4 7 1028.6 1028.7 0.0
23/11:30am 12.9 10.3 6.3 64 3.2 SE 9 13 5 7 1028.8 1028.9 0.0
23/11:00am 13.1 10.9 7.8 70 2.6 ESE 9 13 5 7 1029.1 1029.3 0.0
23/10:30am 11.9 8.9 7.6 75 2.1 SE 13 15 7 8 1029.1 1029.3 0.0
23/10:00am 11.8 9.6 7.9 77 1.9 ESE 9 17 5 9 1029.2 1029.4 0.0
23/09:30am 10.8 8.2 7.9 82 1.4 SE 11 17 6 9 1029.3 1029.5 0.0
23/09:00am 10.2 8.0 7.8 85 1.2 SSE 9 13 5 7 1029.1 1029.3 0.0
23/08:30am 9.8 7.6 7.9 88 0.9 SSE 9 13 5 7 1028.9 1029.1 0.0
23/08:00am 9.3 7.1 7.7 90 0.8 SE 9 13 5 7 1028.5 1028.6 0.0
23/07:30am 8.9 7.1 7.8 93 0.5 SE 7 11 4 6 1028.0 1028.1 0.0
23/07:00am 8.1 6.3 7.2 94 0.4 ESE 6 9 3 5 1027.6 1027.8 0.0
23/06:30am 7.8 5.9 6.9 94 0.4 SE 6 7 3 4 1027.2 1027.4 0.0
23/06:00am 7.4 6.6 6.5 94 0.4 CALM 0 0 0 0 1027.1 1027.3 0.0
23/05:30am 6.9 6.0 6.0 94 0.4 CALM 0 0 0 0 1026.8 1027.0 0.0
23/05:00am 6.9 5.9 5.8 93 0.5 CALM 0 0 0 0 1026.3 1026.5 0.0
23/04:30am 6.8 5.4 5.7 93 0.5 SSE 2 7 1 4 1026.1 1026.3 0.0
23/04:00am 7.4 5.4 6.2 92 0.6 SSE 6 7 3 4 1025.9 1026.1 0.0
23/03:30am 8.1 6.1 6.9 92 0.6 SSE 7 9 4 5 1025.6 1025.7 0.0
23/03:00am 8.5 6.5 7.1 91 0.7 SE 7 9 4 5 1025.6 1025.7 0.0
23/02:30am 8.8 7.0 7.3 90 0.7 S 6 7 3 4 1025.6 1025.7 0.0
23/02:00am 9.3 7.4 7.4 88 0.9 SSE 7 9 4 5 1025.7 1025.8 0.0
23/01:30am 9.8 7.6 7.7 87 1.0 SE 9 15 5 8 1025.6 1025.7 0.0
23/01:00am 10.0 8.2 7.8 86 1.1 SE 7 11 4 6 1025.7 1025.8 0.0
23/12:30am 10.3 8.5 8.1 86 1.1 SE 7 11 4 6 1025.7 1025.8 0.0
23/12:00am 10.2 8.1 8.1 87 1.0 ESE 9 13 5 7 1025.6 1025.7 0.0
 
Date/Time
WST
Temp
°C
App
Temp
°C
Dew
Point
°C
Rel
Hum
%
Delta-T
°C
Wind Press
QNH
hPa
Press
MSL
hPa
Rain since
9am
mm
Dir  Spd
km/h
Gust
km/h
Spd
kts
Gust
kts
22/11:30pm 10.2 7.7 8.3 88 0.9 SE 11 15 6 8 1025.5 1025.6 0.0
22/11:00pm 10.3 8.3 8.6 89 0.8 SE 9 13 5 7 1025.5 1025.6 0.0
22/10:30pm 10.3 7.9 8.6 89 0.8 SE 11 19 6 10 1025.5 1025.6 0.0
22/10:00pm 10.3 7.5 8.6 89 0.8 SE 13 19 7 10 1025.3 1025.4 0.0
22/09:30pm 10.4 7.3 8.7 89 0.8 SE 15 20 8 11 1025.2 1025.3 0.0
22/09:00pm 10.6 7.0 8.5 87 1.0 SE 17 24 9 13 1025.0 1025.1 0.0
22/08:30pm 10.9 7.1 9.0 88 1.0 SE 19 32 10 17 1024.7 1024.8 0.0
22/08:00pm 11.4 8.9 9.7 89 0.9 SSE 13 19 7 10 1024.4 1024.5 0.0
22/07:30pm 11.5 8.9 9.4 87 1.1 SE 13 19 7 10 1023.8 1024.0 0.0
22/07:00pm 12.5 9.6 9.5 82 1.5 SSE 15 22 8 12 1023.3 1023.5 0.0
22/06:30pm 13.6 10.9 8.9 73 2.4 S 13 20 7 11 1022.8 1022.9 0.0
22/06:00pm 14.4 12.4 8.8 69 2.9 SSW 9 17 5 9 1022.3 1022.4 0.0
22/05:30pm 14.7 12.7 8.6 67 3.1 S 9 15 5 8 1021.9 1022.0 0.0
22/05:00pm 15.1 12.8 7.4 60 3.9 SW 9 13 5 7 1021.5 1021.6 0.0
22/04:30pm 15.6 13.2 7.1 57 4.3 SW 9 13 5 7 1021.3 1021.4 0.0
22/04:00pm 15.9 13.5 7.1 56 4.4 SW 9 17 5 9 1021.1 1021.2 0.0
22/03:30pm 15.7 13.0 7.2 57 4.3 SSW 11 17 6 9 1021.0 1021.1 0.0
22/03:00pm 15.5 12.7 6.8 56 4.3 SW 11 15 6 8 1020.9 1021.0 0.0
22/02:30pm 16.4 13.5 6.5 52 4.9 SW 11 19 6 10 1020.6 1020.7 0.0
22/02:00pm 16.3 12.6 6.2 51 5.0 SW 15 24 8 13 1020.4 1020.6 0.0
22/01:30pm 16.8 13.5 6.6 51 5.1 SW 13 22 7 12 1020.4 1020.6 0.0
22/01:00pm 16.5 12.9 6.6 52 4.9 SW 15 24 8 13 1020.7 1020.8 0.0
22/12:30pm 16.2 12.5 6.3 52 4.9 WSW 15 20 8 11 1021.1 1021.2 0.0
22/12:00pm 14.8 11.1 6.1 56 4.2 SW 15 24 8 13 1021.3 1021.4 0.0
22/11:30am 15.0 11.6 6.0 55 4.4 WSW 13 20 7 11 1021.5 1021.6 0.0
22/11:00am 14.3 10.5 5.7 56 4.1 WSW 15 22 8 12 1021.6 1021.7 0.0
22/10:30am 13.9 9.7 5.8 58 3.9 WSW 17 24 9 13 1021.7 1021.8 0.0
22/10:00am 13.5 9.9 6.8 64 3.3 WSW 15 24 8 13 1021.7 1021.8 0.0
22/09:30am 12.7 9.7 6.1 64 3.2 W 11 17 6 9 1021.7 1021.8 0.0
22/09:00am 11.9 8.7 5.1 63 3.2 W 11 15 6 8 1021.7 1021.8 0.0
22/08:30am 10.2 8.1 6.0 75 2.0 WNW 6 7 3 4 1021.4 1021.5 0.0
22/08:00am 8.3 6.2 5.6 83 1.2 NW 6 7 3 4 1021.2 1021.3 0.0
22/07:30am 6.4 3.9 4.6 88 0.8 N 7 9 4 5 1021.0 1021.1 0.0
22/07:00am 5.3 2.6 3.6 89 0.7 N 7 9 4 5 1020.7 1020.8 0.0
22/06:30am 5.4 2.7 3.6 88 0.8 NW 7 9 4 5 1020.2 1020.4 0.0
22/06:00am 5.4 2.9 3.7 89 0.7 NW 6 7 3 4 1019.9 1020.0 0.0
22/05:30am 5.6 3.1 3.8 88 0.8 NNW 6 6 3 3 1019.6 1019.7 0.0
22/05:00am 6.3 3.7 4.3 87 0.9 NNW 7 9 4 5 1019.5 1019.6 0.0
22/04:30am 6.7 4.6 4.0 83 1.2 NW 4 6 2 3 1019.4 1019.5 0.0
22/04:00am 8.0 5.5 4.6 79 1.5 WNW 7 9 4 5 1019.6 1019.7 0.0
22/03:30am 9.3 6.4 4.9 74 2.0 WSW 9 15 5 8 1019.7 1019.8 0.0
22/03:00am 10.2 7.5 5.6 73 2.1 W 9 13 5 7 1019.7 1019.8 0.0
22/02:30am 10.4 7.9 6.7 78 1.8 WSW 9 11 5 6 1019.8 1019.9 0.0
22/02:00am 10.5 8.4 6.8 78 1.8 SW 7 9 4 5 1019.8 1019.9 0.0
22/01:30am 11.0 8.6 6.9 76 2.0 WSW 9 13 5 7 1020.0 1020.2 0.0
22/01:00am 10.8 8.9 7.7 81 1.5 W 7 11 4 6 1020.2 1020.4 0.0
22/12:30am 11.2 9.5 7.7 79 1.7 W 6 9 3 5 1020.2 1020.4 0.0
22/12:00am 11.5 10.3 8.2 80 1.6 W 4 7 2 4 1020.3 1020.5 0.0
 
Date/Time
WST
Temp
°C
App
Temp
°C
Dew
Point
°C
Rel
Hum
%
Delta-T
°C
Wind Press
QNH
hPa
Press
MSL
hPa
Rain since
9am
mm
Dir  Spd
km/h
Gust
km/h
Spd
kts
Gust
kts
21/11:30pm 11.8 9.7 8.1 78 1.8 WSW 9 15 5 8 1020.6 1020.7 0.0
21/11:00pm 12.3 10.2 8.2 76 2.0 WSW 9 17 5 9 1020.7 1020.8 0.0
21/10:30pm 12.8 10.5 8.9 77 2.0 W 11 17 6 9 1020.7 1020.8 0.0
21/10:00pm 12.4 10.8 8.9 79 1.8 WNW 7 9 4 5 1020.9 1021.0 0.0
21/09:30pm 12.4 10.9 9.1 80 1.7 WNW 7 9 4 5 1020.8 1020.9 0.0
21/09:00pm 12.0 11.0 9.0 82 1.5 NW 4 7 2 4 1020.6 1020.7 0.0
21/08:30pm 12.1 10.5 8.8 80 1.7 N 7 9 4 5 1020.3 1020.5 0.0
21/08:00pm 12.2 10.8 8.7 79 1.8 NNW 6 9 3 5 1020.0 1020.2 0.0
21/07:30pm 12.3 10.3 8.6 78 1.9 N 9 11 5 6 1019.8 1019.9 0.0
21/07:00pm 12.8 11.2 8.1 73 2.3 NNW 6 9 3 5 1019.7 1019.8 0.0
21/06:30pm 13.4 10.9 8.0 70 2.7 NNW 11 13 6 7 1019.5 1019.6 0.0
21/06:00pm 13.9 11.7 7.9 67 3.0 NW 9 11 5 6 1019.3 1019.4 0.0
21/05:30pm 14.5 11.9 7.8 64 3.4 WNW 11 17 6 9 1019.1 1019.2 0.0
21/05:00pm 14.8 11.7 7.4 61 3.7 WNW 13 20 7 11 1018.9 1019.0 0.0
21/04:30pm 15.5 11.5 6.8 56 4.3 WNW 17 24 9 13 1018.8 1018.9 0.0
21/04:00pm 15.7 12.2 7.0 56 4.3 WNW 15 20 8 11 1018.7 1018.8 0.0
21/03:30pm 15.1 11.7 7.6 61 3.8 WNW 15 20 8 11 1018.8 1018.9 0.0
21/03:00pm 14.5 11.6 8.2 66 3.2 WSW 13 19 7 10 1019.1 1019.2 0.0
21/02:30pm 15.1 10.6 6.9 58 4.1 WNW 20 26 11 14 1019.2 1019.3 0.0
21/02:00pm 15.0 10.5 6.3 56 4.3 NW 19 26 10 14 1019.4 1019.5 0.0
21/01:30pm 15.1 10.6 6.1 55 4.4 WNW 19 26 10 14 1019.5 1019.6 0.0
21/01:00pm 14.9 10.9 6.7 58 4.0 WNW 17 24 9 13 1020.0 1020.2 0.0

Other Formats:

Comma delimited format used in spreadsheet applications
http://www.bom.gov.au/fwo/IDW60801/IDW60801.95637.axf

JavaScript Object Notation format (JSON) in row-major order
http://www.bom.gov.au/fwo/IDW60801/IDW60801.95637.json